createdAt,value
2023-03-06T00:05:33.275Z,3578
2023-03-06T00:20:33.239Z,3578
2023-03-06T00:35:33.204Z,3575
2023-03-06T00:50:33.195Z,3578
2023-03-06T01:05:33.137Z,3575
2023-03-06T01:20:33.173Z,3573
2023-03-06T01:35:33.176Z,3575
2023-03-06T01:50:33.163Z,3573
2023-03-06T02:05:33.147Z,3573
2023-03-06T02:20:33.152Z,3573
2023-03-06T02:35:33.151Z,3573
2023-03-06T02:50:33.117Z,3573
2023-03-06T03:05:33.088Z,3573
2023-03-06T03:20:33.103Z,3570
2023-03-06T03:35:33.107Z,3573
2023-03-06T03:50:33.084Z,3570
2023-03-06T04:05:33.073Z,3573
2023-03-06T04:20:33.077Z,3570
2023-03-06T04:35:33.065Z,3570
2023-03-06T04:50:33.082Z,3570
2023-03-06T05:05:33.040Z,3568
2023-03-06T05:20:33.061Z,3570
2023-03-06T05:35:33.117Z,3570
2023-03-06T05:50:33.050Z,3568
2023-03-06T06:05:32.999Z,3570
2023-03-06T06:20:33.045Z,3568
2023-03-06T06:35:33.031Z,3568
2023-03-06T06:50:33.046Z,3568
2023-03-06T07:05:33.017Z,3568
2023-03-06T07:20:33.033Z,3573
2023-03-06T07:35:33.015Z,3578
2023-03-06T07:50:33.036Z,3583
2023-03-06T08:05:32.972Z,3588
2023-03-06T08:20:32.972Z,3593
2023-03-06T08:35:32.934Z,3593
2023-03-06T08:50:32.881Z,3599
2023-03-06T09:05:32.854Z,3599
2023-03-06T09:20:32.882Z,3599
2023-03-06T09:35:32.847Z,3599
2023-03-06T09:50:32.851Z,3596
2023-03-06T10:05:32.780Z,3596
2023-03-06T10:20:32.801Z,3593
2023-03-06T10:35:32.802Z,3593
2023-03-06T10:50:32.766Z,3596
2023-03-06T11:05:32.695Z,3596
2023-03-06T11:20:48.595Z,3599
2023-03-06T11:35:32.681Z,3599
2023-03-06T11:50:32.748Z,3599
2023-03-06T12:05:32.699Z,3599
2023-03-06T12:20:32.632Z,3596
2023-03-06T12:35:32.630Z,3599
2023-03-06T12:50:32.592Z,3596
2023-03-06T13:05:32.523Z,3599
2023-03-06T13:20:34.654Z,3599
2023-03-06T13:35:32.591Z,3599
2023-03-06T13:50:32.490Z,3599
2023-03-06T14:05:34.083Z,3599
2023-03-06T14:20:32.463Z,3596
2023-03-06T14:35:32.468Z,3599
2023-03-06T14:50:32.436Z,3599
2023-03-06T15:05:32.361Z,3596
2023-03-06T15:20:32.396Z,3596
2023-03-06T15:35:32.377Z,3599
2023-03-06T15:50:32.333Z,3596
2023-03-06T16:05:32.281Z,3596
2023-03-06T16:20:32.306Z,3596
2023-03-06T16:35:32.299Z,3596
2023-03-06T16:50:32.269Z,3599
2023-03-06T17:05:32.207Z,3596
2023-03-06T17:20:32.240Z,3596
2023-03-06T17:35:32.227Z,3599
2023-03-06T17:50:32.187Z,3596
2023-03-06T18:05:32.121Z,3596
2023-03-06T18:20:32.139Z,3593
2023-03-06T18:35:32.126Z,3593
2023-03-06T18:50:32.124Z,3593
2023-03-06T19:05:32.067Z,3593
2023-03-06T19:20:32.068Z,3593
2023-03-06T19:35:32.043Z,3591
2023-03-06T19:50:32.057Z,3593
2023-03-06T20:05:32.005Z,3591
2023-03-06T20:20:32.014Z,3588
2023-03-06T20:35:32.176Z,3591
2023-03-06T20:50:31.974Z,3591
2023-03-06T21:05:31.938Z,3588
2023-03-06T21:20:31.967Z,3588
2023-03-06T21:35:31.959Z,3588
2023-03-06T21:50:31.922Z,3588
2023-03-06T22:05:31.900Z,3586
2023-03-06T22:20:31.899Z,3583
2023-03-06T22:35:31.959Z,3586
2023-03-06T22:50:31.865Z,3583
2023-03-06T23:05:31.834Z,3583
2023-03-06T23:20:31.860Z,3583
2023-03-06T23:35:31.890Z,3583
2023-03-06T23:50:31.809Z,3581
